sensor_id;sensor_type;location;lat;lon;timestamp;temperature;humidity
24522;DHT22;12680;57.804;12.190;2023-12-28T00:00:06;0.00;99.90
24522;DHT22;12680;57.804;12.190;2023-12-28T00:02:34;0.00;99.90
24522;DHT22;12680;57.804;12.190;2023-12-28T00:05:04;0.00;99.90
24522;DHT22;12680;57.804;12.190;2023-12-28T00:07:42;0.00;99.90
24522;DHT22;12680;57.804;12.190;2023-12-28T00:10:10;0.00;99.90
24522;DHT22;12680;57.804;12.190;2023-12-28T00:12:37;-0.10;99.90
24522;DHT22;12680;57.804;12.190;2023-12-28T00:15:05;-0.10;99.90
24522;DHT22;12680;57.804;12.190;2023-12-28T00:17:32;-0.10;99.90
24522;DHT22;12680;57.804;12.190;2023-12-28T00:19:58;-0.10;99.90
24522;DHT22;12680;57.804;12.190;2023-12-28T00:22:31;0.00;99.90
24522;DHT22;12680;57.804;12.190;2023-12-28T00:24:58;-0.80;99.90
24522;DHT22;12680;57.804;12.190;2023-12-28T00:27:26;-0.10;99.90
24522;DHT22;12680;57.804;12.190;2023-12-28T00:30:00;-0.10;99.90
24522;DHT22;12680;57.804;12.190;2023-12-28T00:32:31;0.00;99.90
24522;DHT22;12680;57.804;12.190;2023-12-28T00:35:05;0.00;99.90
24522;DHT22;12680;57.804;12.190;2023-12-28T00:37:35;0.00;99.90
24522;DHT22;12680;57.804;12.190;2023-12-28T00:40:03;-0.10;99.90
24522;DHT22;12680;57.804;12.190;2023-12-28T00:42:37;-0.10;99.90
24522;DHT22;12680;57.804;12.190;2023-12-28T00:45:11;3.40;99.90
24522;DHT22;12680;57.804;12.190;2023-12-28T00:47:38;0.00;99.90
24522;DHT22;12680;57.804;12.190;2023-12-28T00:50:10;0.00;99.90
24522;DHT22;12680;57.804;12.190;2023-12-28T00:52:45;0.00;99.90
24522;DHT22;12680;57.804;12.190;2023-12-28T00:55:12;0.00;99.90
24522;DHT22;12680;57.804;12.190;2023-12-28T00:57:42;0.00;99.90
24522;DHT22;12680;57.804;12.190;2023-12-28T01:00:13;-0.10;99.90
24522;DHT22;12680;57.804;12.190;2023-12-28T01:02:49;0.00;99.90
24522;DHT22;12680;57.804;12.190;2023-12-28T01:05:20;-0.10;99.90
24522;DHT22;12680;57.804;12.190;2023-12-28T01:07:48;0.00;99.90
24522;DHT22;12680;57.804;12.190;2023-12-28T01:10:22;0.00;99.90
24522;DHT22;12680;57.804;12.190;2023-12-28T01:12:52;0.00;99.90
24522;DHT22;12680;57.804;12.190;2023-12-28T01:15:19;0.00;99.90
24522;DHT22;12680;57.804;12.190;2023-12-28T01:17:53;0.30;99.90
24522;DHT22;12680;57.804;12.190;2023-12-28T01:20:22;0.10;99.90
24522;DHT22;12680;57.804;12.190;2023-12-28T01:22:52;0.10;99.90
24522;DHT22;12680;57.804;12.190;2023-12-28T01:25:23;0.10;99.90
24522;DHT22;12680;57.804;12.190;2023-12-28T01:27:50;0.10;99.90
24522;DHT22;12680;57.804;12.190;2023-12-28T01:30:23;0.10;99.90
24522;DHT22;12680;57.804;12.190;2023-12-28T01:32:53;0.10;99.90
24522;DHT22;12680;57.804;12.190;2023-12-28T01:35:24;0.10;99.90
24522;DHT22;12680;57.804;12.190;2023-12-28T01:37:50;0.20;99.90
24522;DHT22;12680;57.804;12.190;2023-12-28T01:40:20;0.10;99.90
24522;DHT22;12680;57.804;12.190;2023-12-28T01:42:51;0.10;99.90
24522;DHT22;12680;57.804;12.190;2023-12-28T01:45:18;0.10;99.90
24522;DHT22;12680;57.804;12.190;2023-12-28T01:47:45;0.20;99.90
24522;DHT22;12680;57.804;12.190;2023-12-28T01:50:14;0.20;99.90
24522;DHT22;12680;57.804;12.190;2023-12-28T01:52:41;3.00;99.90
24522;DHT22;12680;57.804;12.190;2023-12-28T01:55:13;0.20;99.90
24522;DHT22;12680;57.804;12.190;2023-12-28T01:57:44;0.20;99.90
24522;DHT22;12680;57.804;12.190;2023-12-28T02:00:16;0.30;99.90
24522;DHT22;12680;57.804;12.190;2023-12-28T02:02:46;0.30;99.90
24522;DHT22;12680;57.804;12.190;2023-12-28T02:05:22;0.30;99.90
24522;DHT22;12680;57.804;12.190;2023-12-28T02:07:53;0.30;99.90
24522;DHT22;12680;57.804;12.190;2023-12-28T02:10:21;0.30;99.90
24522;DHT22;12680;57.804;12.190;2023-12-28T02:12:52;0.30;99.90
24522;DHT22;12680;57.804;12.190;2023-12-28T02:15:20;0.30;99.90
24522;DHT22;12680;57.804;12.190;2023-12-28T02:18:02;3.60;99.90
24522;DHT22;12680;57.804;12.190;2023-12-28T02:20:32;0.30;99.90
24522;DHT22;12680;57.804;12.190;2023-12-28T02:23:04;0.30;99.90
24522;DHT22;12680;57.804;12.190;2023-12-28T02:25:36;3.40;99.90
24522;DHT22;12680;57.804;12.190;2023-12-28T02:28:04;0.40;99.90
24522;DHT22;12680;57.804;12.190;2023-12-28T02:30:31;0.40;99.90
24522;DHT22;12680;57.804;12.190;2023-12-28T02:33:19;0.40;99.90
24522;DHT22;12680;57.804;12.190;2023-12-28T02:35:52;0.40;99.90
24522;DHT22;12680;57.804;12.190;2023-12-28T02:38:25;0.40;99.90
24522;DHT22;12680;57.804;12.190;2023-12-28T02:40:54;0.50;99.90
24522;DHT22;12680;57.804;12.190;2023-12-28T02:43:22;0.50;99.90
24522;DHT22;12680;57.804;12.190;2023-12-28T02:45:53;0.50;99.90
24522;DHT22;12680;57.804;12.190;2023-12-28T02:48:32;0.60;99.90
24522;DHT22;12680;57.804;12.190;2023-12-28T02:51:00;0.60;99.90
24522;DHT22;12680;57.804;12.190;2023-12-28T02:53:34;0.70;99.90
24522;DHT22;12680;57.804;12.190;2023-12-28T02:56:05;0.70;99.90
24522;DHT22;12680;57.804;12.190;2023-12-28T02:58:32;0.70;99.90
24522;DHT22;12680;57.804;12.190;2023-12-28T03:01:00;0.70;99.90
24522;DHT22;12680;57.804;12.190;2023-12-28T03:03:30;0.80;99.90
24522;DHT22;12680;57.804;12.190;2023-12-28T03:06:03;0.80;99.90
24522;DHT22;12680;57.804;12.190;2023-12-28T03:08:34;0.80;99.90
24522;DHT22;12680;57.804;12.190;2023-12-28T03:11:04;2.00;99.90
24522;DHT22;12680;57.804;12.190;2023-12-28T03:13:35;2.60;99.90
24522;DHT22;12680;57.804;12.190;2023-12-28T03:16:05;2.70;99.90
24522;DHT22;12680;57.804;12.190;2023-12-28T03:18:32;0.90;99.90
24522;DHT22;12680;57.804;12.190;2023-12-28T03:21:00;3.10;99.90
24522;DHT22;12680;57.804;12.190;2023-12-28T03:23:30;0.90;99.90
24522;DHT22;12680;57.804;12.190;2023-12-28T03:25:57;0.90;99.90
24522;DHT22;12680;57.804;12.190;2023-12-28T03:28:24;1.00;99.90
24522;DHT22;12680;57.804;12.190;2023-12-28T03:30:51;1.00;99.90
24522;DHT22;12680;57.804;12.190;2023-12-28T03:33:22;1.00;99.90
24522;DHT22;12680;57.804;12.190;2023-12-28T03:35:49;1.10;99.90
24522;DHT22;12680;57.804;12.190;2023-12-28T03:38:15;1.00;99.90
24522;DHT22;12680;57.804;12.190;2023-12-28T03:40:49;1.10;99.90
24522;DHT22;12680;57.804;12.190;2023-12-28T03:43:21;1.10;99.90
24522;DHT22;12680;57.804;12.190;2023-12-28T03:45:52;1.10;99.90
24522;DHT22;12680;57.804;12.190;2023-12-28T03:48:19;3.10;99.90
24522;DHT22;12680;57.804;12.190;2023-12-28T03:50:50;1.20;99.90
24522;DHT22;12680;57.804;12.190;2023-12-28T03:53:17;1.20;99.90
24522;DHT22;12680;57.804;12.190;2023-12-28T03:55:43;1.30;99.90
24522;DHT22;12680;57.804;12.190;2023-12-28T03:58:13;1.30;99.90
24522;DHT22;12680;57.804;12.190;2023-12-28T04:00:40;1.30;99.90
24522;DHT22;12680;57.804;12.190;2023-12-28T04:03:11;1.30;99.90
24522;DHT22;12680;57.804;12.190;2023-12-28T04:05:43;1.40;99.90
24522;DHT22;12680;57.804;12.190;2023-12-28T04:08:13;1.40;99.90
24522;DHT22;12680;57.804;12.190;2023-12-28T04:10:41;1.40;99.90
24522;DHT22;12680;57.804;12.190;2023-12-28T04:13:08;1.40;99.90
24522;DHT22;12680;57.804;12.190;2023-12-28T04:15:35;1.50;99.90
24522;DHT22;12680;57.804;12.190;2023-12-28T04:18:06;1.50;99.90
24522;DHT22;12680;57.804;12.190;2023-12-28T04:20:33;1.50;99.90
24522;DHT22;12680;57.804;12.190;2023-12-28T04:23:00;1.60;99.90
24522;DHT22;12680;57.804;12.190;2023-12-28T04:25:32;1.60;99.90
24522;DHT22;12680;57.804;12.190;2023-12-28T04:27:59;1.60;99.90
24522;DHT22;12680;57.804;12.190;2023-12-28T04:30:30;1.70;99.90
24522;DHT22;12680;57.804;12.190;2023-12-28T04:32:57;1.70;99.90
24522;DHT22;12680;57.804;12.190;2023-12-28T04:35:28;1.70;99.90
24522;DHT22;12680;57.804;12.190;2023-12-28T04:37:56;1.80;99.90
24522;DHT22;12680;57.804;12.190;2023-12-28T04:40:32;1.80;99.90
24522;DHT22;12680;57.804;12.190;2023-12-28T04:43:00;1.80;99.90
24522;DHT22;12680;57.804;12.190;2023-12-28T04:45:29;1.90;99.90
24522;DHT22;12680;57.804;12.190;2023-12-28T04:47:56;1.90;99.90
24522;DHT22;12680;57.804;12.190;2023-12-28T04:50:24;2.00;99.90
24522;DHT22;12680;57.804;12.190;2023-12-28T04:52:54;2.00;99.90
24522;DHT22;12680;57.804;12.190;2023-12-28T04:55:25;2.10;99.90
24522;DHT22;12680;57.804;12.190;2023-12-28T04:57:53;2.10;99.90
24522;DHT22;12680;57.804;12.190;2023-12-28T05:00:21;2.10;99.90
24522;DHT22;12680;57.804;12.190;2023-12-28T05:02:48;2.20;99.90
24522;DHT22;12680;57.804;12.190;2023-12-28T05:05:19;2.20;99.90
24522;DHT22;12680;57.804;12.190;2023-12-28T05:07:53;2.20;99.90
24522;DHT22;12680;57.804;12.190;2023-12-28T05:10:23;2.30;99.90
24522;DHT22;12680;57.804;12.190;2023-12-28T05:12:50;2.30;99.90
24522;DHT22;12680;57.804;12.190;2023-12-28T05:15:17;2.30;99.90
24522;DHT22;12680;57.804;12.190;2023-12-28T05:17:46;2.30;99.90
24522;DHT22;12680;57.804;12.190;2023-12-28T05:20:13;2.40;99.90
24522;DHT22;12680;57.804;12.190;2023-12-28T05:22:40;2.40;99.90
24522;DHT22;12680;57.804;12.190;2023-12-28T05:25:07;2.40;99.90
24522;DHT22;12680;57.804;12.190;2023-12-28T05:27:34;2.50;99.90
24522;DHT22;12680;57.804;12.190;2023-12-28T05:30:00;2.50;99.90
24522;DHT22;12680;57.804;12.190;2023-12-28T05:32:27;2.50;99.90
24522;DHT22;12680;57.804;12.190;2023-12-28T05:34:54;2.50;99.90
24522;DHT22;12680;57.804;12.190;2023-12-28T05:37:21;2.50;99.90
24522;DHT22;12680;57.804;12.190;2023-12-28T05:39:48;2.50;99.90
24522;DHT22;12680;57.804;12.190;2023-12-28T05:42:16;2.50;99.90
24522;DHT22;12680;57.804;12.190;2023-12-28T05:44:43;2.50;99.90
24522;DHT22;12680;57.804;12.190;2023-12-28T05:47:10;2.60;99.90
24522;DHT22;12680;57.804;12.190;2023-12-28T05:49:37;5.80;99.90
24522;DHT22;12680;57.804;12.190;2023-12-28T05:52:04;2.60;99.90
24522;DHT22;12680;57.804;12.190;2023-12-28T05:54:32;2.60;99.90
24522;DHT22;12680;57.804;12.190;2023-12-28T05:57:04;2.70;99.90
24522;DHT22;12680;57.804;12.190;2023-12-28T05:59:40;2.70;99.90
24522;DHT22;12680;57.804;12.190;2023-12-28T06:02:07;2.70;99.90
24522;DHT22;12680;57.804;12.190;2023-12-28T06:04:41;2.80;99.90
24522;DHT22;12680;57.804;12.190;2023-12-28T06:07:12;2.80;99.90
24522;DHT22;12680;57.804;12.190;2023-12-28T06:09:43;2.90;99.90
24522;DHT22;12680;57.804;12.190;2023-12-28T06:12:09;2.90;99.90
24522;DHT22;12680;57.804;12.190;2023-12-28T06:14:39;2.90;99.90
24522;DHT22;12680;57.804;12.190;2023-12-28T06:17:09;3.00;99.90
24522;DHT22;12680;57.804;12.190;2023-12-28T06:19:36;3.00;99.90
24522;DHT22;12680;57.804;12.190;2023-12-28T06:22:03;5.30;99.90
24522;DHT22;12680;57.804;12.190;2023-12-28T06:24:30;3.00;99.90
24522;DHT22;12680;57.804;12.190;2023-12-28T06:26:57;3.10;99.90
24522;DHT22;12680;57.804;12.190;2023-12-28T06:29:24;3.20;99.90
24522;DHT22;12680;57.804;12.190;2023-12-28T06:31:51;3.20;99.90
24522;DHT22;12680;57.804;12.190;2023-12-28T06:34:18;3.30;99.90
24522;DHT22;12680;57.804;12.190;2023-12-28T06:36:45;3.30;99.90
24522;DHT22;12680;57.804;12.190;2023-12-28T06:39:12;3.40;99.90
24522;DHT22;12680;57.804;12.190;2023-12-28T06:41:39;3.50;99.90
24522;DHT22;12680;57.804;12.190;2023-12-28T06:44:08;3.50;99.90
24522;DHT22;12680;57.804;12.190;2023-12-28T06:46:37;3.60;99.90
24522;DHT22;12680;57.804;12.190;2023-12-28T06:49:04;3.70;99.90
24522;DHT22;12680;57.804;12.190;2023-12-28T06:51:37;3.80;99.90
24522;DHT22;12680;57.804;12.190;2023-12-28T06:54:04;3.90;99.90
24522;DHT22;12680;57.804;12.190;2023-12-28T06:56:31;3.90;99.90
24522;DHT22;12680;57.804;12.190;2023-12-28T06:58:58;4.00;99.90
24522;DHT22;12680;57.804;12.190;2023-12-28T07:01:24;4.00;99.90
24522;DHT22;12680;57.804;12.190;2023-12-28T07:03:52;4.00;99.90
24522;DHT22;12680;57.804;12.190;2023-12-28T07:06:21;4.00;99.90
24522;DHT22;12680;57.804;12.190;2023-12-28T07:08:51;4.10;99.90
24522;DHT22;12680;57.804;12.190;2023-12-28T07:11:18;4.10;99.90
24522;DHT22;12680;57.804;12.190;2023-12-28T07:13:45;5.70;99.90
24522;DHT22;12680;57.804;12.190;2023-12-28T07:16:15;7.30;99.90
24522;DHT22;12680;57.804;12.190;2023-12-28T07:18:46;4.20;99.90
24522;DHT22;12680;57.804;12.190;2023-12-28T07:21:13;4.20;99.90
24522;DHT22;12680;57.804;12.190;2023-12-28T07:23:40;4.30;99.90
24522;DHT22;12680;57.804;12.190;2023-12-28T07:26:15;4.30;99.90
24522;DHT22;12680;57.804;12.190;2023-12-28T07:28:42;4.30;99.90
24522;DHT22;12680;57.804;12.190;2023-12-28T07:31:11;4.30;99.90
24522;DHT22;12680;57.804;12.190;2023-12-28T07:33:49;4.40;99.90
24522;DHT22;12680;57.804;12.190;2023-12-28T07:36:16;4.40;99.90
24522;DHT22;12680;57.804;12.190;2023-12-28T07:38:44;4.40;99.90
24522;DHT22;12680;57.804;12.190;2023-12-28T07:41:11;4.40;99.90
24522;DHT22;12680;57.804;12.190;2023-12-28T07:43:42;4.40;99.90
24522;DHT22;12680;57.804;12.190;2023-12-28T07:46:09;4.40;99.90
24522;DHT22;12680;57.804;12.190;2023-12-28T07:48:35;4.50;99.90
24522;DHT22;12680;57.804;12.190;2023-12-28T07:51:07;4.50;99.90
24522;DHT22;12680;57.804;12.190;2023-12-28T07:53:34;4.60;99.90
24522;DHT22;12680;57.804;12.190;2023-12-28T07:56:01;4.60;99.90
24522;DHT22;12680;57.804;12.190;2023-12-28T07:58:31;4.70;99.90
24522;DHT22;12680;57.804;12.190;2023-12-28T08:00:58;4.70;99.90
24522;DHT22;12680;57.804;12.190;2023-12-28T08:03:25;4.80;99.90
24522;DHT22;12680;57.804;12.190;2023-12-28T08:05:55;4.80;99.90
24522;DHT22;12680;57.804;12.190;2023-12-28T08:08:25;4.80;99.90
24522;DHT22;12680;57.804;12.190;2023-12-28T08:10:52;4.90;99.90
24522;DHT22;12680;57.804;12.190;2023-12-28T08:13:23;4.90;99.90
24522;DHT22;12680;57.804;12.190;2023-12-28T08:15:50;5.00;99.90
24522;DHT22;12680;57.804;12.190;2023-12-28T08:18:19;4.90;99.90
24522;DHT22;12680;57.804;12.190;2023-12-28T08:20:46;5.20;99.90
24522;DHT22;12680;57.804;12.190;2023-12-28T08:23:13;5.10;99.90
24522;DHT22;12680;57.804;12.190;2023-12-28T08:25:44;5.10;99.90
24522;DHT22;12680;57.804;12.190;2023-12-28T08:28:15;5.20;99.90
24522;DHT22;12680;57.804;12.190;2023-12-28T08:30:43;5.20;99.90
24522;DHT22;12680;57.804;12.190;2023-12-28T08:33:14;5.20;99.90
24522;DHT22;12680;57.804;12.190;2023-12-28T08:35:42;5.30;99.90
24522;DHT22;12680;57.804;12.190;2023-12-28T08:38:10;5.30;99.90
24522;DHT22;12680;57.804;12.190;2023-12-28T08:40:37;5.30;99.90
24522;DHT22;12680;57.804;12.190;2023-12-28T08:43:07;5.40;99.90
24522;DHT22;12680;57.804;12.190;2023-12-28T08:45:34;7.80;99.90
24522;DHT22;12680;57.804;12.190;2023-12-28T08:48:03;5.40;99.90
24522;DHT22;12680;57.804;12.190;2023-12-28T08:50:30;5.50;99.90
24522;DHT22;12680;57.804;12.190;2023-12-28T08:52:57;5.50;99.90
24522;DHT22;12680;57.804;12.190;2023-12-28T08:55:24;5.50;99.90
24522;DHT22;12680;57.804;12.190;2023-12-28T08:57:51;5.50;99.90
24522;DHT22;12680;57.804;12.190;2023-12-28T09:00:19;5.60;99.90
24522;DHT22;12680;57.804;12.190;2023-12-28T09:02:50;5.60;99.90
24522;DHT22;12680;57.804;12.190;2023-12-28T09:05:20;5.60;99.90
24522;DHT22;12680;57.804;12.190;2023-12-28T09:07:49;5.70;99.90
24522;DHT22;12680;57.804;12.190;2023-12-28T09:10:16;5.70;99.90
24522;DHT22;12680;57.804;12.190;2023-12-28T09:12:44;5.70;99.90
24522;DHT22;12680;57.804;12.190;2023-12-28T09:15:11;5.70;99.90
24522;DHT22;12680;57.804;12.190;2023-12-28T09:17:38;5.70;99.90
24522;DHT22;12680;57.804;12.190;2023-12-28T09:20:06;5.70;99.90
24522;DHT22;12680;57.804;12.190;2023-12-28T09:22:33;5.70;99.90
24522;DHT22;12680;57.804;12.190;2023-12-28T09:25:00;7.40;99.90
24522;DHT22;12680;57.804;12.190;2023-12-28T09:27:27;8.50;99.90
24522;DHT22;12680;57.804;12.190;2023-12-28T09:29:58;5.80;99.90
24522;DHT22;12680;57.804;12.190;2023-12-28T09:32:28;5.90;99.90
24522;DHT22;12680;57.804;12.190;2023-12-28T09:34:58;5.90;99.90
24522;DHT22;12680;57.804;12.190;2023-12-28T09:37:26;6.00;99.90
24522;DHT22;12680;57.804;12.190;2023-12-28T09:39:53;6.00;99.90
24522;DHT22;12680;57.804;12.190;2023-12-28T09:42:26;6.00;99.90
24522;DHT22;12680;57.804;12.190;2023-12-28T09:45:00;6.10;99.90
24522;DHT22;12680;57.804;12.190;2023-12-28T09:47:27;6.10;99.90
24522;DHT22;12680;57.804;12.190;2023-12-28T09:49:54;6.20;99.90
24522;DHT22;12680;57.804;12.190;2023-12-28T09:52:21;6.20;99.90
24522;DHT22;12680;57.804;12.190;2023-12-28T09:54:48;6.20;99.90
24522;DHT22;12680;57.804;12.190;2023-12-28T09:57:15;8.30;99.90
24522;DHT22;12680;57.804;12.190;2023-12-28T09:59:42;6.30;99.90
24522;DHT22;12680;57.804;12.190;2023-12-28T10:02:10;6.30;99.90
24522;DHT22;12680;57.804;12.190;2023-12-28T10:04:37;6.30;99.90
24522;DHT22;12680;57.804;12.190;2023-12-28T10:07:05;6.30;99.90
24522;DHT22;12680;57.804;12.190;2023-12-28T10:09:32;6.40;99.90
24522;DHT22;12680;57.804;12.190;2023-12-28T10:11:59;8.10;99.90
24522;DHT22;12680;57.804;12.190;2023-12-28T10:14:29;6.50;99.90
24522;DHT22;12680;57.804;12.190;2023-12-28T10:16:56;6.60;99.90
24522;DHT22;12680;57.804;12.190;2023-12-28T10:19:24;6.70;99.90
24522;DHT22;12680;57.804;12.190;2023-12-28T10:21:51;6.80;99.90
24522;DHT22;12680;57.804;12.190;2023-12-28T10:24:22;6.80;99.90
24522;DHT22;12680;57.804;12.190;2023-12-28T10:26:49;6.80;99.90
24522;DHT22;12680;57.804;12.190;2023-12-28T10:29:17;6.80;99.90
24522;DHT22;12680;57.804;12.190;2023-12-28T10:31:50;6.70;99.90
24522;DHT22;12680;57.804;12.190;2023-12-28T10:34:19;6.70;99.90
24522;DHT22;12680;57.804;12.190;2023-12-28T10:36:47;6.70;99.90
24522;DHT22;12680;57.804;12.190;2023-12-28T10:39:19;6.70;99.90
24522;DHT22;12680;57.804;12.190;2023-12-28T10:41:49;6.70;99.90
24522;DHT22;12680;57.804;12.190;2023-12-28T10:44:20;6.70;99.90
24522;DHT22;12680;57.804;12.190;2023-12-28T10:46:50;6.70;99.90
24522;DHT22;12680;57.804;12.190;2023-12-28T10:49:21;7.60;99.90
24522;DHT22;12680;57.804;12.190;2023-12-28T10:51:53;6.70;99.90
24522;DHT22;12680;57.804;12.190;2023-12-28T10:54:52;6.80;99.90
24522;DHT22;12680;57.804;12.190;2023-12-28T10:57:28;6.80;99.90
24522;DHT22;12680;57.804;12.190;2023-12-28T11:00:09;6.80;99.90
24522;DHT22;12680;57.804;12.190;2023-12-28T11:02:48;6.80;99.90
24522;DHT22;12680;57.804;12.190;2023-12-28T11:05:23;6.80;99.90
24522;DHT22;12680;57.804;12.190;2023-12-28T11:07:50;6.80;99.90
24522;DHT22;12680;57.804;12.190;2023-12-28T11:10:24;7.40;99.90
24522;DHT22;12680;57.804;12.190;2023-12-28T11:12:53;8.30;99.90
24522;DHT22;12680;57.804;12.190;2023-12-28T11:15:21;6.80;99.90
24522;DHT22;12680;57.804;12.190;2023-12-28T11:17:50;9.60;99.90
24522;DHT22;12680;57.804;12.190;2023-12-28T11:20:18;6.80;99.90
24522;DHT22;12680;57.804;12.190;2023-12-28T11:22:46;6.80;99.90
24522;DHT22;12680;57.804;12.190;2023-12-28T11:25:17;6.80;99.90
24522;DHT22;12680;57.804;12.190;2023-12-28T11:27:46;8.80;99.90
24522;DHT22;12680;57.804;12.190;2023-12-28T11:30:13;7.20;99.90
24522;DHT22;12680;57.804;12.190;2023-12-28T11:32:41;6.90;99.90
24522;DHT22;12680;57.804;12.190;2023-12-28T11:35:13;7.80;99.90
24522;DHT22;12680;57.804;12.190;2023-12-28T11:37:51;8.40;99.90
24522;DHT22;12680;57.804;12.190;2023-12-28T11:40:19;7.00;99.90
24522;DHT22;12680;57.804;12.190;2023-12-28T11:42:52;7.00;99.90
24522;DHT22;12680;57.804;12.190;2023-12-28T11:45:20;7.00;99.90
24522;DHT22;12680;57.804;12.190;2023-12-28T11:48:01;7.00;99.90
24522;DHT22;12680;57.804;12.190;2023-12-28T11:50:29;8.40;99.90
24522;DHT22;12680;57.804;12.190;2023-12-28T11:52:56;8.50;99.90
24522;DHT22;12680;57.804;12.190;2023-12-28T11:55:23;6.80;99.90
24522;DHT22;12680;57.804;12.190;2023-12-28T11:57:53;6.80;99.90
24522;DHT22;12680;57.804;12.190;2023-12-28T12:00:20;6.80;99.90
24522;DHT22;12680;57.804;12.190;2023-12-28T12:02:48;6.80;99.90
24522;DHT22;12680;57.804;12.190;2023-12-28T12:05:15;6.70;99.90
24522;DHT22;12680;57.804;12.190;2023-12-28T12:07:42;7.80;99.90
24522;DHT22;12680;57.804;12.190;2023-12-28T12:10:14;6.60;99.90
24522;DHT22;12680;57.804;12.190;2023-12-28T12:12:42;6.60;99.90
24522;DHT22;12680;57.804;12.190;2023-12-28T12:15:09;6.50;99.90
24522;DHT22;12680;57.804;12.190;2023-12-28T12:17:39;6.50;99.90
24522;DHT22;12680;57.804;12.190;2023-12-28T12:20:06;9.20;99.90
24522;DHT22;12680;57.804;12.190;2023-12-28T12:22:39;6.40;99.90
24522;DHT22;12680;57.804;12.190;2023-12-28T12:25:08;6.30;99.90
24522;DHT22;12680;57.804;12.190;2023-12-28T12:27:36;6.30;99.90
24522;DHT22;12680;57.804;12.190;2023-12-28T12:30:05;6.20;99.90
24522;DHT22;12680;57.804;12.190;2023-12-28T12:32:32;6.20;99.90
24522;DHT22;12680;57.804;12.190;2023-12-28T12:35:01;6.20;99.90
24522;DHT22;12680;57.804;12.190;2023-12-28T12:37:29;6.10;99.90
24522;DHT22;12680;57.804;12.190;2023-12-28T12:39:56;7.80;99.90
24522;DHT22;12680;57.804;12.190;2023-12-28T12:42:26;6.10;99.90
24522;DHT22;12680;57.804;12.190;2023-12-28T12:44:53;6.10;99.90
24522;DHT22;12680;57.804;12.190;2023-12-28T12:47:22;6.10;99.90
24522;DHT22;12680;57.804;12.190;2023-12-28T12:49:51;6.00;99.90
24522;DHT22;12680;57.804;12.190;2023-12-28T12:52:19;6.10;99.90
24522;DHT22;12680;57.804;12.190;2023-12-28T12:54:56;6.00;99.90
24522;DHT22;12680;57.804;12.190;2023-12-28T12:57:27;9.30;99.90
24522;DHT22;12680;57.804;12.190;2023-12-28T12:59:54;6.00;99.90
24522;DHT22;12680;57.804;12.190;2023-12-28T13:02:25;6.00;99.90
24522;DHT22;12680;57.804;12.190;2023-12-28T13:04:56;5.90;99.90
24522;DHT22;12680;57.804;12.190;2023-12-28T13:07:23;5.90;99.90
24522;DHT22;12680;57.804;12.190;2023-12-28T13:09:51;5.90;99.90
24522;DHT22;12680;57.804;12.190;2023-12-28T13:12:19;5.90;99.90
24522;DHT22;12680;57.804;12.190;2023-12-28T13:14:47;6.00;99.90
24522;DHT22;12680;57.804;12.190;2023-12-28T13:17:18;6.00;99.90
24522;DHT22;12680;57.804;12.190;2023-12-28T13:19:45;6.00;99.90
24522;DHT22;12680;57.804;12.190;2023-12-28T13:22:16;6.00;99.90
24522;DHT22;12680;57.804;12.190;2023-12-28T13:24:43;5.90;99.90
24522;DHT22;12680;57.804;12.190;2023-12-28T13:27:10;5.90;99.90
24522;DHT22;12680;57.804;12.190;2023-12-28T13:29:38;5.90;99.90
24522;DHT22;12680;57.804;12.190;2023-12-28T13:32:05;6.00;99.90
24522;DHT22;12680;57.804;12.190;2023-12-28T13:34:35;6.00;99.90
24522;DHT22;12680;57.804;12.190;2023-12-28T13:37:02;6.00;99.90
24522;DHT22;12680;57.804;12.190;2023-12-28T13:39:33;6.00;99.90
24522;DHT22;12680;57.804;12.190;2023-12-28T13:42:06;6.00;99.90
24522;DHT22;12680;57.804;12.190;2023-12-28T13:44:34;5.90;99.90
24522;DHT22;12680;57.804;12.190;2023-12-28T13:47:02;5.90;99.90
24522;DHT22;12680;57.804;12.190;2023-12-28T13:49:33;5.90;99.90
24522;DHT22;12680;57.804;12.190;2023-12-28T13:52:01;5.90;99.90
24522;DHT22;12680;57.804;12.190;2023-12-28T13:54:28;5.80;99.90
24522;DHT22;12680;57.804;12.190;2023-12-28T13:56:55;5.80;99.90
24522;DHT22;12680;57.804;12.190;2023-12-28T13:59:25;5.80;99.90
24522;DHT22;12680;57.804;12.190;2023-12-28T14:01:52;5.80;99.90
24522;DHT22;12680;57.804;12.190;2023-12-28T14:04:19;6.00;99.90
24522;DHT22;12680;57.804;12.190;2023-12-28T14:06:50;5.80;99.90
24522;DHT22;12680;57.804;12.190;2023-12-28T14:09:17;5.80;99.90
24522;DHT22;12680;57.804;12.190;2023-12-28T14:11:47;5.80;99.90
24522;DHT22;12680;57.804;12.190;2023-12-28T14:14:15;5.80;99.90
24522;DHT22;12680;57.804;12.190;2023-12-28T14:16:43;5.70;99.90
24522;DHT22;12680;57.804;12.190;2023-12-28T14:19:12;5.70;99.90
24522;DHT22;12680;57.804;12.190;2023-12-28T14:21:40;5.70;99.90
24522;DHT22;12680;57.804;12.190;2023-12-28T14:24:08;5.70;99.90
24522;DHT22;12680;57.804;12.190;2023-12-28T14:26:41;5.70;99.90
24522;DHT22;12680;57.804;12.190;2023-12-28T14:29:11;5.70;99.90
24522;DHT22;12680;57.804;12.190;2023-12-28T14:31:38;5.70;99.90
24522;DHT22;12680;57.804;12.190;2023-12-28T14:34:06;5.70;99.90
24522;DHT22;12680;57.804;12.190;2023-12-28T14:36:37;5.70;99.90
24522;DHT22;12680;57.804;12.190;2023-12-28T14:44:10;5.70;99.90
24522;DHT22;12680;57.804;12.190;2023-12-28T14:46:37;5.70;99.90
24522;DHT22;12680;57.804;12.190;2023-12-28T14:49:04;5.60;99.90
24522;DHT22;12680;57.804;12.190;2023-12-28T14:51:34;5.60;99.90
24522;DHT22;12680;57.804;12.190;2023-12-28T14:54:06;5.60;99.90
24522;DHT22;12680;57.804;12.190;2023-12-28T14:56:33;5.60;99.90
24522;DHT22;12680;57.804;12.190;2023-12-28T14:59:14;5.60;99.90
24522;DHT22;12680;57.804;12.190;2023-12-28T15:01:45;5.70;99.90
24522;DHT22;12680;57.804;12.190;2023-12-28T15:04:16;5.70;99.90
24522;DHT22;12680;57.804;12.190;2023-12-28T15:06:47;5.70;99.90
24522;DHT22;12680;57.804;12.190;2023-12-28T15:09:21;5.70;99.90
24522;DHT22;12680;57.804;12.190;2023-12-28T15:11:56;5.70;99.90
24522;DHT22;12680;57.804;12.190;2023-12-28T15:14:23;5.80;99.90
24522;DHT22;12680;57.804;12.190;2023-12-28T15:16:54;5.80;99.90
24522;DHT22;12680;57.804;12.190;2023-12-28T15:19:24;5.70;99.90
24522;DHT22;12680;57.804;12.190;2023-12-28T15:21:58;7.00;99.90
24522;DHT22;12680;57.804;12.190;2023-12-28T15:24:26;5.80;99.90
24522;DHT22;12680;57.804;12.190;2023-12-28T15:26:57;5.80;99.90
24522;DHT22;12680;57.804;12.190;2023-12-28T15:29:24;5.80;99.90
24522;DHT22;12680;57.804;12.190;2023-12-28T15:31:55;5.80;99.90
24522;DHT22;12680;57.804;12.190;2023-12-28T15:34:22;5.80;99.90
24522;DHT22;12680;57.804;12.190;2023-12-28T15:36:49;5.90;99.90
24522;DHT22;12680;57.804;12.190;2023-12-28T15:39:16;5.90;99.90
24522;DHT22;12680;57.804;12.190;2023-12-28T15:41:43;6.00;99.90
24522;DHT22;12680;57.804;12.190;2023-12-28T15:44:10;5.90;99.90
24522;DHT22;12680;57.804;12.190;2023-12-28T15:46:37;5.90;99.90